Time;durP1;ratioP1;P1;durP2;ratioP2;P2;SDS_P1;SDS_P2;PMS_P1;PMS_P2;Temp;Humidity;BMP_temperature;BMP_pressure;BME280_temperature;BME280_humidity;BME280_pressure;Samples;Min_cycle;Max_cycle;Signal;HPM_P1;HPM_P2
2021/09/25 07:01:44;;;;;;;12.65;7.60;;;;;;;12.21;84.81;98952.13;5343266;23;20055;-75
2021/09/25 07:04:10;;;;;;;9.77;7.00;;;;;;;12.84;81.24;98951.53;4941890;28;20480;-75
2021/09/25 07:06:39;;;;;;;8.65;6.75;;;;;;;13.68;76.57;98948.50;4957114;28;20030;-75
2021/09/25 07:09:04;;;;;;;10.43;6.20;;;;;;;14.81;72.64;98945.13;4954115;28;20023;-75
2021/09/25 07:11:30;;;;;;;9.30;5.88;;;;;;;15.59;68.93;98937.25;4956663;28;20023;-75
2021/09/25 07:13:56;;;;;;;6.55;5.80;;;;;;;15.09;69.47;98945.06;4945974;28;20025;-75
2021/09/25 07:16:21;;;;;;;7.43;6.68;;;;;;;13.84;74.90;98957.59;4994861;23;20050;-74
2021/09/25 07:18:46;;;;;;;10.35;6.50;;;;;;;13.06;78.34;98955.31;4964961;28;20050;-72
2021/09/25 07:21:12;;;;;;;10.30;6.65;;;;;;;13.40;78.28;98951.88;4960008;28;20049;-72
2021/09/25 07:23:37;;;;;;;7.10;6.40;;;;;;;12.84;81.25;98959.31;4963621;28;20428;-72
2021/09/25 07:26:03;;;;;;;12.73;6.65;;;;;;;12.79;82.36;98958.56;4955719;28;20499;-70
2021/09/25 07:28:29;;;;;;;10.82;7.20;;;;;;;12.81;83.37;98954.19;4957287;28;20081;-69
2021/09/25 07:30:54;;;;;;;12.05;7.03;;;;;;;12.69;84.67;98957.09;4957059;28;20030;-70
2021/09/25 07:33:19;;;;;;;12.00;8.30;;;;;;;12.46;85.30;98966.25;4959874;28;20107;-70
2021/09/25 07:35:45;;;;;;;10.60;7.78;;;;;;;12.53;85.43;98957.47;4954322;28;20039;-72
2021/09/25 07:38:10;;;;;;;10.57;8.18;;;;;;;12.70;85.62;98956.19;4956347;28;20054;-71
2021/09/25 07:40:36;;;;;;;16.17;7.60;;;;;;;12.58;85.81;98963.41;4957707;28;20480;-72
2021/09/25 07:43:03;;;;;;;23.50;9.40;;;;;;;12.82;85.68;98964.56;4959620;28;20039;-71
2021/09/25 07:45:28;;;;;;;12.95;7.88;;;;;;;13.08;84.14;98960.47;4953521;28;20030;-72
2021/09/25 07:47:54;;;;;;;11.60;8.10;;;;;;;13.20;84.27;98972.28;4953745;28;20019;-73
2021/09/25 07:50:20;;;;;;;10.55;8.60;;;;;;;13.29;83.63;98959.09;4952372;28;20044;-73
2021/09/25 07:52:46;;;;;;;15.82;7.75;;;;;;;13.18;83.72;98966.28;4953428;28;20031;-73
2021/09/25 07:55:13;;;;;;;11.80;8.30;;;;;;;13.06;83.90;98963.13;4953926;28;20031;-71
2021/09/25 07:57:39;;;;;;;10.05;8.40;;;;;;;13.45;83.95;98975.19;4958964;28;20062;-75
2021/09/25 08:00:09;;;;;;;7.75;6.85;;;;;;;14.12;81.76;98978.50;4953553;28;20023;-75
2021/09/25 08:02:34;;;;;;;9.73;7.32;;;;;;;14.87;78.46;98978.84;4954837;28;20034;-72
2021/09/25 08:05:01;;;;;;;9.68;7.38;;;;;;;16.02;72.96;98961.84;4956833;28;20389;-71
2021/09/25 08:07:26;;;;;;;12.68;7.22;;;;;;;17.90;64.59;98960.28;4953913;28;20481;-73
2021/09/25 08:09:52;;;;;;;9.63;6.40;;;;;;;20.54;56.94;98956.66;4958685;28;20031;-73
2021/09/25 08:12:17;;;;;;;9.55;6.30;;;;;;;21.47;51.90;98962.81;4959749;28;20353;-73
2021/09/25 08:14:42;;;;;;;8.18;5.40;;;;;;;24.18;46.32;98958.41;4956827;28;20520;-73
2021/09/25 08:17:08;;;;;;;10.60;5.32;;;;;;;25.28;42.19;98945.03;4953993;28;20027;-75
2021/09/25 08:19:33;;;;;;;6.25;5.38;;;;;;;23.94;44.38;98939.81;4953229;28;20031;-75
2021/09/25 08:21:58;;;;;;;13.23;6.00;;;;;;;24.82;42.76;98935.22;4953401;28;20031;-75
2021/09/25 08:24:24;;;;;;;7.60;5.53;;;;;;;23.72;44.04;98936.00;4953215;28;20129;-75
2021/09/25 08:26:49;;;;;;;9.60;4.70;;;;;;;26.11;39.72;98939.53;4953061;28;20110;-73
2021/09/25 08:29:14;;;;;;;5.57;5.07;;;;;;;26.66;38.43;98940.41;4956904;28;20025;-73
2021/09/25 08:31:40;;;;;;;6.50;4.15;;;;;;;25.94;40.05;98947.97;4961722;28;20418;-72
2021/09/25 08:34:05;;;;;;;7.95;4.35;;;;;;;25.11;40.98;98938.38;4953183;28;20019;-72
2021/09/25 08:36:30;;;;;;;5.40;4.82;;;;;;;24.69;42.32;98947.66;4951853;28;20023;-76
2021/09/25 08:38:56;;;;;;;8.25;5.00;;;;;;;24.27;43.29;98942.72;4955082;28;20040;-73
2021/09/25 08:41:21;;;;;;;5.82;5.30;;;;;;;26.23;39.88;98932.38;4952169;28;20027;-72
2021/09/25 08:43:49;;;;;;;10.13;4.65;;;;;;;27.33;37.62;98932.19;4954815;28;20027;-71
2021/09/25 08:46:14;;;;;;;8.23;5.00;;;;;;;26.14;40.11;98939.25;4962153;28;20023;-71
2021/09/25 08:48:40;;;;;;;8.25;4.15;;;;;;;29.28;34.21;98923.81;4960235;28;20110;-73
2021/09/25 08:51:07;;;;;;;6.50;4.22;;;;;;;29.11;34.50;98924.53;4952819;28;20106;-75
2021/09/25 08:53:32;;;;;;;9.60;3.78;;;;;;;28.96;34.76;98931.25;4956301;28;20074;-75
2021/09/25 08:55:57;;;;;;;10.68;3.88;;;;;;;29.63;33.28;98925.03;4958892;28;20027;-73
2021/09/25 08:58:23;;;;;;;6.65;4.07;;;;;;;30.09;32.18;98928.66;4961890;28;20026;-73
2021/09/25 09:00:51;;;;;;;10.73;4.00;;;;;;;29.42;33.36;98919.84;4959375;28;20556;-72
2021/09/25 09:03:35;;;;;;;7.50;4.10;;;;;;;31.27;31.68;98917.88;4960726;28;20110;-72
2021/09/25 09:06:10;;;;;;;5.47;4.22;;;;;;;28.15;35.54;98931.38;4959328;28;20123;-73
2021/09/25 09:08:37;;;;;;;5.88;3.78;;;;;;;28.80;35.20;98927.31;4959598;28;20106;-72
2021/09/25 09:11:04;;;;;;;4.63;3.55;;;;;;;31.13;31.32;98915.75;4956598;28;20027;-73
2021/09/25 09:13:30;;;;;;;6.65;3.67;;;;;;;32.08;29.96;98911.38;4958470;28;20019;-75
2021/09/25 09:15:55;;;;;;;3.90;3.60;;;;;;;30.09;32.45;98917.97;4955850;28;20043;-73
2021/09/25 09:18:22;;;;;;;7.82;4.18;;;;;;;29.80;33.02;98916.25;4956034;28;20026;-74
2021/09/25 09:21:17;;;;;;;4.03;3.50;;;;;;;31.03;31.28;98904.28;4955987;28;20477;-72
2021/09/25 09:23:55;;;;;;;5.90;3.80;;;;;;;29.78;33.03;98902.19;4957489;28;20038;-73
2021/09/25 09:26:27;;;;;;;4.07;3.03;;;;;;;30.27;32.42;98902.84;4955729;28;20026;-73
2021/09/25 09:28:56;;;;;;;3.90;3.60;;;;;;;31.78;29.74;98905.50;4958316;28;20480;-72
2021/09/25 09:31:22;;;;;;;3.75;3.00;;;;;;;32.38;29.37;98908.13;4955842;28;20106;-73
2021/09/25 09:33:51;;;;;;;5.82;3.05;;;;;;;33.43;27.93;98898.53;4958789;28;20037;-72
2021/09/25 09:36:28;;;;;;;6.55;3.42;;;;;;;31.71;29.87;98899.09;4958105;28;20022;-74
2021/09/25 09:38:53;;;;;;;5.63;3.13;;;;;;;30.90;31.17;98908.22;4964431;28;20035;-72
2021/09/25 09:41:29;;;;;;;4.68;3.88;;;;;;;30.14;32.43;98903.19;4963592;28;20030;-74
2021/09/25 09:43:57;;;;;;;5.38;3.25;;;;;;;31.66;30.24;98896.03;4962412;28;20023;-74
2021/09/25 09:46:31;;;;;;;6.53;3.22;;;;;;;32.65;29.07;98898.16;4959539;28;20023;-73
2021/09/25 09:48:57;;;;;;;3.45;3.03;;;;;;;33.18;28.06;98888.81;4953407;28;20390;-76
2021/09/25 09:51:45;;;;;;;5.82;3.00;;;;;;;32.96;28.75;98891.16;4961609;28;20023;-73
2021/09/25 09:54:32;;;;;;;3.03;2.83;;;;;;;34.88;25.97;98889.16;4961814;28;20106;-73
2021/09/25 09:57:10;;;;;;;3.20;2.78;;;;;;;33.56;27.23;98891.78;4960286;28;20081;-74
2021/09/25 09:59:36;;;;;;;3.40;3.00;;;;;;;33.05;28.34;98885.78;4960754;28;20023;-73
2021/09/25 10:02:02;;;;;;;3.50;2.60;;;;;;;34.33;26.52;98883.94;4962019;28;20038;-76
2021/09/25 10:04:27;;;;;;;3.00;2.80;;;;;;;34.71;25.38;98880.34;4966325;28;20134;-71
2021/09/25 10:06:52;;;;;;;5.32;2.78;;;;;;;34.50;26.53;98870.25;4962834;28;20162;-72
2021/09/25 10:09:22;;;;;;;2.30;2.10;;;;;;;34.98;24.78;98876.31;4957004;28;20030;-72
2021/09/25 10:11:49;;;;;;;2.78;2.45;;;;;;;35.01;25.95;98867.03;4962756;28;20027;-73
2021/09/25 10:14:24;;;;;;;5.40;2.60;;;;;;;33.97;26.30;98863.78;4958693;28;20473;-72
2021/09/25 10:16:50;;;;;;;5.65;2.45;;;;;;;35.60;23.69;98858.22;4955575;28;20117;-72
2021/09/25 10:19:19;;;;;;;3.08;2.45;;;;;;;34.74;25.33;98865.69;4961731;28;20053;-76
2021/09/25 10:21:45;;;;;;;;;;;;;;;34.61;26.08;98868.16;4962272;28;20019;-74
2021/09/25 10:24:13;;;;;;;2.97;2.70;;;;;;;35.28;24.19;98857.50;4962853;28;19937;-74
2021/09/25 10:26:47;;;;;;;3.67;2.50;;;;;;;35.51;24.58;98847.53;4964436;28;20105;-72
2021/09/25 10:29:18;;;;;;;4.47;2.45;;;;;;;34.78;24.98;98853.56;4959646;28;20099;-72
2021/09/25 10:31:44;;;;;;;7.60;5.55;;;;;;;36.31;23.28;98851.22;4960997;28;20054;-76
2021/09/25 10:34:18;;;;;;;3.28;2.30;;;;;;;35.06;24.77;98842.22;4957532;28;20065;-75
2021/09/25 10:36:51;;;;;;;2.42;2.20;;;;;;;34.59;25.51;98846.81;4961768;28;20035;-74
2021/09/25 10:39:34;;;;;;;3.95;2.17;;;;;;;34.95;24.92;98840.78;4960295;28;20037;-76
2021/09/25 10:42:10;;;;;;;2.88;2.00;;;;;;;32.94;27.24;98839.47;4962724;28;20110;-72
2021/09/25 10:44:41;;;;;;;2.72;2.10;;;;;;;34.48;26.25;98839.16;4962523;28;20020;-72
2021/09/25 10:47:14;;;;;;;4.97;2.42;;;;;;;35.52;24.13;98832.19;4965208;28;20030;-72
2021/09/25 10:49:46;;;;;;;3.95;2.30;;;;;;;35.40;24.68;98834.47;4961855;28;20042;-73
2021/09/25 10:52:15;;;;;;;5.70;2.38;;;;;;;35.77;24.97;98828.16;4959282;28;20030;-76
2021/09/25 10:54:41;;;;;;;2.88;2.15;;;;;;;35.81;23.88;98823.22;4960349;28;20031;-74
2021/09/25 10:57:17;;;;;;;4.13;2.50;;;;;;;34.73;25.83;98837.09;4966996;28;20073;-73
2021/09/25 11:00:20;;;;;;;5.25;2.38;;;;;;;34.75;25.64;98824.28;4961160;28;20551;-73
2021/09/25 11:02:46;;;;;;;2.10;1.92;;;;;;;37.06;22.36;98831.03;4958366;28;20064;-73
2021/09/25 11:05:56;;;;;;;2.75;2.17;;;;;;;36.65;22.67;98820.03;4956237;28;20023;-72
2021/09/25 11:08:30;;;;;;;6.45;2.38;;;;;;;34.88;24.87;98811.06;4958372;28;20078;-76
2021/09/25 11:11:10;;;;;;;4.30;3.15;;;;;;;36.30;24.12;98804.53;4955247;28;20033;-73
2021/09/25 11:14:00;;;;;;;2.58;2.38;;;;;;;36.53;22.58;98804.38;4961042;28;20027;-73
2021/09/25 11:16:45;;;;;;;2.83;2.28;;;;;;;33.66;25.36;98806.44;4962819;28;20034;-73
2021/09/25 11:19:26;;;;;;;1.95;1.75;;;;;;;32.26;27.59;98810.19;4959003;28;20385;-76
2021/09/25 11:22:24;;;;;;;1.95;1.85;;;;;;;34.24;25.25;98813.22;4964883;28;20035;-76
2021/09/25 11:24:54;;;;;;;2.55;1.90;;;;;;;36.50;23.38;98809.31;4962380;28;20078;-74
2021/09/25 11:27:24;;;;;;;2.72;2.30;;;;;;;37.09;22.75;98798.22;4957707;28;20034;-74
2021/09/25 11:29:55;;;;;;;3.92;2.10;;;;;;;33.94;25.65;98804.09;4961139;28;20023;-73
2021/09/25 11:32:44;;;;;;;3.15;2.20;;;;;;;34.99;24.84;98804.41;4958570;28;20026;-73
2021/09/25 11:35:17;;;;;;;4.43;2.30;;;;;;;36.23;24.24;98798.22;4957190;28;20023;-73
2021/09/25 11:37:57;;;;;;;6.03;2.22;;;;;;;36.05;24.34;98795.13;4960262;28;20110;-72
2021/09/25 11:40:30;;;;;;;3.47;2.25;;;;;;;34.33;25.77;98796.00;4961325;28;20097;-75
2021/09/25 11:43:02;;;;;;;3.00;2.20;;;;;;;36.28;23.36;98784.16;4962186;28;20031;-73
2021/09/25 11:45:37;;;;;;;3.92;2.10;;;;;;;33.82;26.65;98789.38;4957313;28;20073;-74
2021/09/25 11:48:04;;;;;;;2.15;1.90;;;;;;;33.73;27.37;98791.25;4961362;28;20030;-73
2021/09/25 11:50:36;;;;;;;4.38;2.20;;;;;;;33.14;27.78;98788.09;4953978;28;20027;-76
2021/09/25 11:53:06;;;;;;;3.47;2.13;;;;;;;34.44;26.41;98790.19;4960868;28;20046;-71
2021/09/25 11:55:33;;;;;;;2.20;2.00;;;;;;;34.72;25.45;98781.59;4959281;28;20023;-73
2021/09/25 11:58:07;;;;;;;2.55;2.35;;;;;;;34.81;26.21;98775.09;4959756;28;20019;-73
2021/09/25 12:00:37;;;;;;;3.25;2.47;;;;;;;34.59;26.02;98765.22;4957797;28;20031;-75
2021/09/25 12:03:05;;;;;;;2.63;2.03;;;;;;;33.00;28.24;98773.50;4959931;28;20057;-74
2021/09/25 12:05:32;;;;;;;4.10;2.60;;;;;;;29.07;34.55;98768.38;4953702;28;20030;-72
2021/09/25 12:08:04;;;;;;;3.00;2.38;;;;;;;28.58;36.31;98771.09;4960065;28;20172;-71
2021/09/25 12:10:33;;;;;;;2.28;2.10;;;;;;;28.41;35.77;98769.97;4963335;28;20027;-75
2021/09/25 12:13:00;;;;;;;2.80;2.35;;;;;;;27.46;36.96;98763.44;4954420;28;20023;-75
2021/09/25 12:15:29;;;;;;;2.65;2.45;;;;;;;27.53;37.61;98748.63;4959425;28;20500;-76
2021/09/25 12:18:21;;;;;;;3.60;2.70;;;;;;;27.09;38.85;98756.00;4960931;28;20474;-73
2021/09/25 12:20:56;;;;;;;12.40;10.57;;;;;;;27.26;37.45;98747.41;4958379;28;20480;-73
2021/09/25 12:23:31;;;;;;;2.90;2.45;;;;;;;27.06;38.28;98734.97;4962086;28;20023;-73
2021/09/25 12:25:57;;;;;;;3.00;2.63;;;;;;;26.72;38.89;98737.00;4958258;28;20027;-74
2021/09/25 12:28:29;;;;;;;2.63;2.42;;;;;;;26.78;38.03;98742.63;4968312;28;20035;-73
2021/09/25 12:30:57;;;;;;;3.00;2.40;;;;;;;27.31;37.64;98729.19;4962418;28;20023;-73
2021/09/25 12:33:23;;;;;;;6.15;2.90;;;;;;;27.31;38.13;98726.53;4960145;28;20086;-73
2021/09/25 12:36:08;;;;;;;4.18;3.08;;;;;;;27.64;37.19;98719.22;4963822;28;20038;-71
2021/09/25 12:38:40;;;;;;;5.57;2.60;;;;;;;27.77;37.32;98719.84;4958784;28;20027;-75
2021/09/25 12:41:09;;;;;;;2.40;2.20;;;;;;;27.64;37.40;98714.72;4962475;28;20030;-73
2021/09/25 12:43:49;;;;;;;3.05;2.78;;;;;;;27.61;37.90;98712.38;4965696;28;20023;-75
2021/09/25 12:46:29;;;;;;;2.42;2.25;;;;;;;27.54;38.09;98718.34;4962746;28;20031;-75
2021/09/25 12:49:11;;;;;;;5.32;2.78;;;;;;;27.10;37.91;98726.59;4962910;28;20037;-71
2021/09/25 12:51:57;;;;;;;4.82;2.00;;;;;;;26.76;36.71;98718.00;4961138;28;20058;-75
2021/09/25 12:54:24;;;;;;;2.72;2.45;;;;;;;26.05;37.66;98717.75;4962906;28;20082;-75
2021/09/25 12:56:54;;;;;;;5.57;3.55;;;;;;;26.40;38.19;98712.16;4966186;28;20070;-75
2021/09/25 12:59:25;;;;;;;2.00;1.80;;;;;;;26.01;34.45;98716.31;4961890;28;20030;-75
2021/09/25 13:01:54;;;;;;;1.70;1.60;;;;;;;25.93;32.05;98707.31;4956218;28;20039;-72
2021/09/25 13:04:28;;;;;;;3.97;1.70;;;;;;;26.06;36.06;98707.97;4961327;28;20042;-71
2021/09/25 13:06:55;;;;;;;1.63;1.52;;;;;;;26.18;32.79;98706.97;4958012;28;20504;-73
2021/09/25 13:09:25;;;;;;;4.18;2.05;;;;;;;26.27;34.60;98692.06;4968237;28;20082;-71
2021/09/25 13:12:07;;;;;;;2.33;2.10;;;;;;;26.46;34.55;98694.06;4961579;28;20023;-72
2021/09/25 13:14:33;;;;;;;5.35;2.30;;;;;;;26.14;33.31;98694.91;4956788;28;20023;-73
2021/09/25 13:16:58;;;;;;;2.47;1.83;;;;;;;25.90;33.21;98700.44;4997902;23;20051;-76
2021/09/25 13:19:25;;;;;;;2.00;1.85;;;;;;;26.12;33.56;98692.38;4955832;28;20037;-76
2021/09/25 13:21:50;;;;;;;6.35;5.30;;;;;;;26.28;34.17;98691.94;4953388;29;20028;-76
2021/09/25 13:24:18;;;;;;;20.30;15.35;;;;;;;25.92;34.23;98689.66;4955788;28;20026;-76
2021/09/25 13:26:45;;;;;;;2.28;2.00;;;;;;;25.80;34.52;98692.38;4955495;28;20051;-76
2021/09/25 13:29:10;;;;;;;2.10;1.90;;;;;;;25.84;34.86;98685.00;4955685;28;20052;-76
2021/09/25 13:31:36;;;;;;;2.08;1.88;;;;;;;26.02;34.46;98687.97;4949299;28;20035;-76
2021/09/25 13:34:02;;;;;;;1.73;1.63;;;;;;;26.24;34.90;98689.66;4951437;28;20023;-76
2021/09/25 13:36:27;;;;;;;2.20;2.00;;;;;;;26.13;33.96;98685.25;4955312;28;20020;-76
2021/09/25 13:38:52;;;;;;;2.25;2.05;;;;;;;25.92;35.68;98692.31;4955234;28;20089;-76
2021/09/25 13:41:20;;;;;;;3.25;2.45;;;;;;;25.74;35.84;98684.88;4955079;28;20560;-76
2021/09/25 13:43:47;;;;;;;2.55;2.35;;;;;;;25.88;36.05;98689.94;4954303;29;20027;-76
2021/09/25 13:46:12;;;;;;;2.30;2.03;;;;;;;25.93;36.56;98680.75;4947837;28;20488;-76
2021/09/25 13:48:37;;;;;;;3.92;2.38;;;;;;;25.99;36.77;98677.59;4955337;28;20037;-76
2021/09/25 13:51:03;;;;;;;4.90;2.17;;;;;;;26.11;35.38;98674.75;4955183;28;20488;-76
2021/09/25 13:53:28;;;;;;;2.58;2.38;;;;;;;26.04;35.79;98678.03;4954909;28;20034;-76
2021/09/25 13:55:54;;;;;;;3.28;2.42;;;;;;;26.56;34.46;98671.03;4954857;28;20062;-76
2021/09/25 13:58:19;;;;;;;3.42;2.08;;;;;;;26.71;33.71;98672.38;4955128;28;20025;-76
2021/09/25 14:00:45;;;;;;;28.02;19.80;;;;;;;26.90;34.46;98660.97;4955138;28;20027;-76
2021/09/25 14:03:10;;;;;;;5.60;3.15;;;;;;;26.84;34.31;98657.03;4951228;28;20020;-76
2021/09/25 14:05:36;;;;;;;2.22;2.03;;;;;;;26.95;33.66;98664.09;4952718;28;20418;-76
2021/09/25 14:08:03;;;;;;;4.32;2.38;;;;;;;27.18;34.92;98653.28;4954979;28;20054;-75
2021/09/25 14:10:28;;;;;;;3.22;2.17;;;;;;;27.48;33.75;98644.38;4954902;28;20435;-76
2021/09/25 14:12:54;;;;;;;2.28;2.00;;;;;;;27.59;33.88;98636.25;4954475;28;20019;-75
2021/09/25 14:15:19;;;;;;;3.72;1.92;;;;;;;27.26;33.85;98640.13;4954982;28;20030;-76
2021/09/25 14:17:44;;;;;;;2.22;1.98;;;;;;;27.16;32.61;98634.78;4954486;28;20097;-76
2021/09/25 14:20:10;;;;;;;2.75;2.10;;;;;;;25.70;36.34;98638.31;4954975;28;20027;-75
2021/09/25 14:22:36;;;;;;;3.95;2.90;;;;;;;26.47;35.07;98634.59;4954474;29;20106;-76
2021/09/25 14:25:03;;;;;;;5.05;2.00;;;;;;;25.89;34.95;98633.22;4953998;28;20114;-76
2021/09/25 14:27:28;;;;;;;3.60;2.40;;;;;;;25.79;35.52;98637.59;4954401;28;20094;-76
2021/09/25 14:29:54;;;;;;;4.55;2.20;;;;;;;25.59;36.89;98636.56;4954425;28;20118;-75
2021/09/25 14:32:20;;;;;;;3.17;2.20;;;;;;;25.80;36.04;98633.97;4954499;28;20361;-76
2021/09/25 14:34:45;;;;;;;2.65;1.85;;;;;;;26.26;35.75;98629.28;4954159;28;20042;-76
2021/09/25 14:37:11;;;;;;;4.10;2.20;;;;;;;26.32;34.93;98639.38;4954477;28;20023;-76
2021/09/25 14:39:37;;;;;;;3.60;1.85;;;;;;;26.59;35.06;98641.50;4954239;28;20065;-76
2021/09/25 14:42:03;;;;;;;3.30;2.45;;;;;;;26.64;35.46;98633.97;4954149;28;20197;-76
2021/09/25 14:44:30;;;;;;;3.42;2.08;;;;;;;26.59;35.02;98636.19;4954236;28;20023;-76
2021/09/25 14:46:55;;;;;;;6.40;2.10;;;;;;;26.80;34.60;98634.34;4952489;28;20038;-75
2021/09/25 14:49:21;;;;;;;6.65;3.40;;;;;;;26.74;34.44;98637.56;4953386;28;20027;-75
2021/09/25 14:51:46;;;;;;;2.00;1.80;;;;;;;26.58;35.06;98640.66;4953930;28;20074;-75
2021/09/25 14:54:11;;;;;;;6.10;4.95;;;;;;;26.46;34.98;98648.88;4953888;28;20023;-76
2021/09/25 14:56:37;;;;;;;3.55;2.50;;;;;;;26.36;36.06;98649.63;4954144;28;20043;-75
2021/09/25 14:59:02;;;;;;;8.00;2.08;;;;;;;26.27;35.87;98647.75;4953780;28;20517;-75
2021/09/25 15:01:33;;;;;;;3.60;2.20;;;;;;;26.28;35.67;98648.59;4952502;28;20023;-75
2021/09/25 15:03:59;;;;;;;2.83;2.38;;;;;;;26.16;36.60;98645.16;4953775;28;20027;-76
2021/09/25 15:06:25;;;;;;;3.08;2.50;;;;;;;26.22;35.63;98646.44;4951684;28;20389;-75
2021/09/25 15:08:51;;;;;;;18.90;2.60;;;;;;;25.66;36.53;98646.66;4953906;28;20027;-75
2021/09/25 15:11:17;;;;;;;4.78;1.95;;;;;;;25.23;37.25;98645.69;4953884;28;20031;-75
2021/09/25 15:13:42;;;;;;;4.15;2.30;;;;;;;25.60;37.07;98638.25;4954047;28;20086;-75
2021/09/25 15:16:07;;;;;;;2.33;1.85;;;;;;;25.34;38.00;98640.38;4953416;28;20019;-75
2021/09/25 15:18:33;;;;;;;3.72;2.38;;;;;;;25.20;37.36;98635.34;4953804;28;20547;-75
2021/09/25 15:20:59;;;;;;;2.63;1.80;;;;;;;25.24;37.86;98633.25;4952404;29;20027;-75
2021/09/25 15:23:24;;;;;;;3.58;2.10;;;;;;;24.88;38.51;98636.06;4953436;28;20038;-75
2021/09/25 15:25:50;;;;;;;4.05;2.05;;;;;;;24.91;39.08;98628.84;4946283;28;20041;-72
2021/09/25 15:28:16;;;;;;;2.78;1.90;;;;;;;24.79;38.77;98630.63;4947446;29;20042;-72
2021/09/25 15:30:41;;;;;;;2.38;2.00;;;;;;;24.71;38.47;98628.59;4953531;28;20070;-78
2021/09/25 15:33:08;;;;;;;3.70;2.38;;;;;;;24.38;40.39;98636.50;4951910;28;20484;-75
2021/09/25 15:35:34;;;;;;;2.58;2.05;;;;;;;24.32;41.34;98641.28;4953595;28;20054;-75
2021/09/25 15:38:00;;;;;;;4.45;2.33;;;;;;;24.09;43.27;98639.53;4953358;28;20058;-73
2021/09/25 15:40:25;;;;;;;4.60;2.78;;;;;;;23.96;45.64;98644.06;4953692;28;20031;-73
2021/09/25 15:42:51;;;;;;;6.95;2.78;;;;;;;23.63;48.77;98650.03;4953222;28;20024;-73
2021/09/25 15:45:18;;;;;;;3.45;2.85;;;;;;;23.26;49.93;98643.00;4956090;28;20027;-73
2021/09/25 15:47:43;;;;;;;2.90;2.60;;;;;;;23.29;49.28;98648.03;4953333;28;20082;-73
2021/09/25 15:50:09;;;;;;;3.92;2.42;;;;;;;23.36;46.13;98642.31;4953398;28;20027;-72
2021/09/25 15:52:35;;;;;;;4.82;3.38;;;;;;;23.11;49.46;98654.63;4953248;28;20115;-72
2021/09/25 15:55:05;;;;;;;8.75;3.17;;;;;;;22.97;50.91;98652.16;4953443;28;20110;-72
2021/09/25 15:57:31;;;;;;;5.68;3.35;;;;;;;22.89;51.22;98649.19;4952612;28;20036;-72
2021/09/25 15:59:56;;;;;;;3.10;2.80;;;;;;;22.71;52.93;98646.84;4953283;28;20039;-72
2021/09/25 16:02:21;;;;;;;5.38;3.92;;;;;;;22.39;51.42;98640.34;4956205;28;20053;-72
2021/09/25 16:04:46;;;;;;;5.70;4.05;;;;;;;22.61;50.95;98644.97;4956998;28;20023;-72
2021/09/25 16:07:12;;;;;;;5.10;3.70;;;;;;;22.51;49.58;98639.47;4956922;28;20035;-72
2021/09/25 16:09:37;;;;;;;5.35;3.88;;;;;;;22.44;49.40;98639.06;4956810;28;20031;-73
2021/09/25 16:12:03;;;;;;;3.83;3.13;;;;;;;22.41;49.14;98633.13;4956854;28;20031;-72
2021/09/25 16:14:28;;;;;;;2.53;2.33;;;;;;;22.34;48.28;98643.28;4957545;28;20070;-72
2021/09/25 16:16:54;;;;;;;4.22;2.50;;;;;;;22.24;48.66;98637.78;4959390;28;20428;-72
2021/09/25 16:19:19;;;;;;;2.63;2.33;;;;;;;22.30;49.95;98640.00;4956926;28;20388;-72
2021/09/25 16:21:45;;;;;;;3.65;2.50;;;;;;;22.21;50.98;98630.06;4956437;28;20388;-72
2021/09/25 16:24:11;;;;;;;4.18;2.88;;;;;;;21.97;50.83;98637.81;4956993;28;20511;-75
2021/09/25 16:26:38;;;;;;;5.53;2.95;;;;;;;21.97;50.62;98634.31;4956785;28;20034;-75
2021/09/25 16:29:04;;;;;;;3.63;3.10;;;;;;;21.97;51.08;98637.81;4956611;28;20027;-75
2021/09/25 16:31:30;;;;;;;7.70;6.35;;;;;;;21.97;51.33;98629.06;4956562;28;20038;-75
2021/09/25 16:33:56;;;;;;;8.73;6.82;;;;;;;22.01;53.69;98636.66;4956366;28;20822;-75
2021/09/25 16:36:21;;;;;;;9.93;7.95;;;;;;;22.00;54.46;98640.25;4955534;29;20092;-75
2021/09/25 16:38:46;;;;;;;14.93;12.63;;;;;;;21.92;55.20;98636.44;4956499;28;20074;-75
2021/09/25 16:41:12;;;;;;;8.32;7.18;;;;;;;21.93;55.63;98638.13;4956469;28;20023;-75
2021/09/25 16:43:37;;;;;;;17.80;12.57;;;;;;;21.87;55.46;98627.97;4956509;28;20027;-75
2021/09/25 16:46:02;;;;;;;9.93;4.63;;;;;;;21.76;56.90;98620.78;4956329;28;20038;-75
2021/09/25 16:48:28;;;;;;;4.60;3.95;;;;;;;21.67;57.69;98627.50;4956386;28;20133;-75
2021/09/25 16:50:54;;;;;;;4.97;3.92;;;;;;;21.48;59.34;98632.28;4956222;28;20030;-75
2021/09/25 16:53:20;;;;;;;5.63;4.70;;;;;;;21.53;59.29;98624.91;4956334;28;20027;-75
2021/09/25 16:55:46;;;;;;;8.02;4.25;;;;;;;21.33;60.49;98633.28;4956015;28;20042;-75
2021/09/25 16:58:11;;;;;;;8.35;3.83;;;;;;;21.17;60.85;98634.19;4956400;28;20030;-75
2021/09/25 17:00:36;;;;;;;6.82;4.22;;;;;;;21.14;61.18;98647.59;4956098;28;20087;-75
2021/09/25 17:03:02;;;;;;;8.13;4.45;;;;;;;20.98;61.99;98644.22;4955948;28;20023;-75
2021/09/25 17:05:27;;;;;;;5.57;4.35;;;;;;;20.89;62.53;98648.28;4956038;28;20491;-72
2021/09/25 17:07:52;;;;;;;16.73;6.60;;;;;;;20.84;62.99;98637.19;4954196;28;20078;-72
2021/09/25 17:10:21;;;;;;;13.25;6.43;;;;;;;20.76;63.89;98647.34;4949404;29;20028;-73
2021/09/25 17:12:48;;;;;;;10.33;5.57;;;;;;;20.69;64.05;98646.00;4953838;28;20031;-73
2021/09/25 17:15:13;;;;;;;12.43;5.43;;;;;;;20.59;63.63;98658.91;4956093;28;20270;-73
2021/09/25 17:17:38;;;;;;;4.95;4.25;;;;;;;20.46;63.89;98657.94;4955745;28;20031;-74
2021/09/25 17:20:06;;;;;;;5.50;4.20;;;;;;;20.38;64.40;98670.69;4955786;28;20060;-73
2021/09/25 17:22:32;;;;;;;11.07;4.30;;;;;;;20.24;65.01;98675.00;4955831;28;20023;-73
2021/09/25 17:24:58;;;;;;;8.98;4.47;;;;;;;20.17;65.82;98665.78;4955759;28;20043;-73
2021/09/25 17:27:23;;;;;;;17.13;6.70;;;;;;;20.04;66.82;98667.44;4955582;28;20049;-73
2021/09/25 17:29:48;;;;;;;9.80;4.75;;;;;;;19.96;66.24;98677.53;4955479;28;20054;-73
2021/09/25 17:32:14;;;;;;;4.82;3.78;;;;;;;19.79;66.88;98672.41;4955389;28;20381;-73
2021/09/25 17:34:40;;;;;;;5.22;3.45;;;;;;;19.76;66.35;98674.28;4951104;28;20024;-71
2021/09/25 17:37:06;;;;;;;7.32;3.70;;;;;;;19.72;66.35;98677.16;4955371;28;20491;-72
2021/09/25 17:39:32;;;;;;;5.53;3.67;;;;;;;19.39;67.78;98679.84;4955699;28;20089;-72
2021/09/25 17:41:57;;;;;;;5.63;3.45;;;;;;;19.23;68.69;98678.09;4955131;28;20027;-72
2021/09/25 17:44:23;;;;;;;5.78;3.78;;;;;;;19.14;69.71;98681.22;4955339;28;20019;-72
2021/09/25 17:46:48;;;;;;;8.23;4.72;;;;;;;19.10;69.93;98679.72;4955087;28;20031;-72
2021/09/25 17:49:13;;;;;;;6.57;4.60;;;;;;;18.98;70.52;98680.34;4955192;28;20464;-72
2021/09/25 17:51:40;;;;;;;10.25;4.40;;;;;;;18.78;70.22;98678.78;4955185;28;20455;-71
2021/09/25 17:54:07;;;;;;;6.75;4.68;;;;;;;18.61;71.78;98673.53;4957420;28;20027;-72
2021/09/25 17:56:35;;;;;;;9.77;5.30;;;;;;;18.48;72.31;98679.44;4955151;28;20051;-71
2021/09/25 17:59:02;;;;;;;8.20;4.47;;;;;;;18.48;72.18;98678.59;4954807;28;20448;-71
2021/09/25 18:01:28;;;;;;;7.22;4.10;;;;;;;18.45;71.46;98681.38;4954783;28;20054;-71
2021/09/25 18:03:54;;;;;;;6.97;4.40;;;;;;;18.50;71.12;98695.09;4954623;28;20408;-71
2021/09/25 18:06:19;;;;;;;8.65;4.40;;;;;;;18.49;71.02;98688.16;4954781;28;20110;-71
2021/09/25 18:08:44;;;;;;;9.55;4.70;;;;;;;18.42;71.19;98682.38;4954852;28;20034;-71
2021/09/25 18:11:10;;;;;;;5.22;3.92;;;;;;;18.26;72.14;98696.34;4954570;29;20027;-71
2021/09/25 18:13:37;;;;;;;9.63;5.18;;;;;;;18.13;72.92;98691.75;4954864;28;20024;-71
2021/09/25 18:16:03;;;;;;;7.50;5.32;;;;;;;18.06;72.90;98695.56;4954139;28;20547;-71
2021/09/25 18:18:28;;;;;;;6.07;4.55;;;;;;;18.10;71.96;98698.91;4954763;28;20123;-72
2021/09/25 18:20:54;;;;;;;7.35;4.22;;;;;;;18.14;71.29;98698.69;4954661;28;20031;-73
2021/09/25 18:23:19;;;;;;;5.60;4.03;;;;;;;18.03;71.57;98692.25;4954532;28;20528;-74
2021/09/25 18:25:45;;;;;;;5.05;3.65;;;;;;;18.00;72.18;98701.13;4953385;28;20113;-74
2021/09/25 18:28:10;;;;;;;6.75;3.97;;;;;;;17.90;73.08;98699.91;4954427;28;20015;-74
2021/09/25 18:30:36;;;;;;;11.18;6.50;;;;;;;17.96;73.44;98694.34;4954382;28;20392;-74
2021/09/25 18:33:02;;;;;;;12.57;5.85;;;;;;;17.98;73.42;98708.22;4953887;28;20031;-74
2021/09/25 18:35:28;;;;;;;27.85;10.35;;;;;;;18.03;73.78;98708.81;4954481;28;20031;-71
2021/09/25 18:37:54;;;;;;;11.77;4.93;;;;;;;17.92;74.20;98713.75;4954295;28;20580;-71